Time;durP1;ratioP1;P1;durP2;ratioP2;P2;SDS_P1;SDS_P2;PMS_P1;PMS_P2;Temp;Humidity;BMP_temperature;BMP_pressure;BME280_temperature;BME280_humidity;BME280_pressure;Samples;Min_cycle;Max_cycle;Signal;HPM_P1;HPM_P2
2022/04/23 00:01:55;;;;;;;19.13;15.02;;;10.90;1.00;;;;;;7369208;19;20015;-63
2022/04/23 00:04:25;;;;;;;21.10;15.98;;;10.80;1.00;;;;;;7357713;19;20007;-62
2022/04/23 00:06:55;;;;;;;21.88;16.30;;;10.80;1.00;;;;;;7358242;19;20015;-63
2022/04/23 00:09:26;;;;;;;22.55;15.80;;;10.70;1.00;;;;;;7361008;19;20014;-63
2022/04/23 00:11:56;;;;;;;22.30;15.50;;;10.70;1.00;;;;;;7361032;19;20014;-62
2022/04/23 00:14:26;;;;;;;21.13;15.38;;;10.70;1.00;;;;;;7376216;19;20436;-62
2022/04/23 00:17:00;;;;;;;21.52;15.68;;;10.70;1.00;;;;;;7356731;19;20013;-62
2022/04/23 00:19:30;;;;;;;23.10;16.92;;;10.70;1.00;;;;;;7357418;19;20074;-62
2022/04/23 00:22:01;;;;;;;23.90;16.17;;;10.70;1.00;;;;;;7359275;19;20090;-62
2022/04/23 00:24:32;;;;;;;18.92;15.23;;;10.60;1.00;;;;;;7353516;19;20401;-63
2022/04/23 00:27:03;;;;;;;20.80;16.73;;;10.60;1.00;;;;;;7357216;19;20020;-62
2022/04/23 00:29:35;;;;;;;20.73;15.88;;;10.60;1.00;;;;;;7381940;19;20074;-63
2022/04/23 00:32:09;;;;;;;21.80;15.65;;;10.50;1.00;;;;;;7359761;19;20136;-63
2022/04/23 00:34:39;;;;;;;18.15;15.73;;;10.50;1.00;;;;;;7353621;19;20011;-63
2022/04/23 00:37:10;;;;;;;20.35;15.25;;;10.40;1.00;;;;;;7356333;19;20018;-63
2022/04/23 00:39:40;;;;;;;23.30;16.40;;;10.30;1.00;;;;;;7357409;19;20055;-63
2022/04/23 00:42:11;;;;;;;22.65;15.82;;;10.40;1.00;;;;;;7360311;19;20015;-63
2022/04/23 00:44:41;;;;;;;21.08;15.57;;;10.40;1.00;;;;;;7351614;19;20022;-63
2022/04/23 00:47:14;;;;;;;25.05;16.27;;;10.40;1.00;;;;;;7378178;19;20010;-61
2022/04/23 00:49:44;;;;;;;21.10;15.32;;;10.40;1.00;;;;;;7366067;19;20074;-62
2022/04/23 00:52:14;;;;;;;19.45;15.25;;;10.40;1.00;;;;;;7366500;19;20024;-62
2022/04/23 00:54:44;;;;;;;20.60;15.50;;;10.40;1.00;;;;;;7361358;19;20022;-62
2022/04/23 00:57:14;;;;;;;22.55;16.67;;;10.30;1.00;;;;;;7364841;19;20006;-61
2022/04/23 00:59:44;;;;;;;23.35;16.35;;;10.30;1.00;;;;;;7365363;19;20019;-63
2022/04/23 01:02:17;;;;;;;21.50;16.08;;;10.20;1.00;;;;;;7389023;19;20020;-62
2022/04/23 01:04:47;;;;;;;23.95;16.27;;;10.00;1.00;;;;;;7358670;19;20016;-62
2022/04/23 01:07:17;;;;;;;20.48;16.25;;;9.90;1.00;;;;;;7364938;19;20013;-63
2022/04/23 01:09:47;;;;;;;23.88;16.85;;;9.80;1.00;;;;;;7367790;19;20024;-62
2022/04/23 01:12:17;;;;;;;21.20;15.93;;;9.80;1.00;;;;;;7368611;19;20039;-63
2022/04/23 01:15:04;;;;;;;20.95;15.75;;;9.80;1.00;;;;;;7356856;19;20022;-63
2022/04/23 01:17:40;;;;;;;20.90;16.73;;;9.80;1.00;;;;;;7386056;19;20029;-63
2022/04/23 01:20:14;;;;;;;21.40;16.58;;;9.70;1.00;;;;;;7365722;19;20054;-62
2022/04/23 01:22:45;;;;;;;25.45;17.58;;;9.70;1.00;;;;;;7365110;19;20089;-62
2022/04/23 01:25:16;;;;;;;24.88;17.30;;;9.70;1.00;;;;;;7359928;19;20019;-62
2022/04/23 01:27:48;;;;;;;23.10;17.60;;;9.70;1.00;;;;;;7365789;19;20021;-62
2022/04/23 01:30:18;;;;;;;22.00;17.23;;;9.70;1.00;;;;;;7367799;19;20010;-63
2022/04/23 01:32:48;;;;;;;21.77;16.02;;;9.60;1.00;;;;;;7367759;19;20003;-62
2022/04/23 01:35:21;;;;;;;28.70;16.95;;;9.60;1.50;;;;;;7381515;19;20025;-63
2022/04/23 01:37:50;;;;;;;21.05;15.15;;;9.60;1.50;;;;;;7364009;19;20720;-62
2022/04/23 01:40:21;;;;;;;23.05;17.05;;;9.60;1.80;;;;;;7365443;19;20508;-62
2022/04/23 01:42:51;;;;;;;22.35;16.85;;;9.70;1.80;;;;;;7368102;19;20010;-62
2022/04/23 01:45:21;;;;;;;20.48;15.88;;;9.60;2.00;;;;;;7358363;19;20015;-62
2022/04/23 01:47:50;;;;;;;21.67;16.13;;;9.60;2.50;;;;;;7364408;19;20025;-63
2022/04/23 01:50:23;;;;;;;18.77;14.65;;;9.60;3.10;;;;;;7388236;19;20020;-63
2022/04/23 01:52:53;;;;;;;19.55;15.52;;;9.60;3.90;;;;;;7366167;19;20018;-62
2022/04/23 01:55:23;;;;;;;20.38;13.88;;;9.60;4.50;;;;;;7359985;19;20031;-62
2022/04/23 01:57:53;;;;;;;17.70;14.07;;;9.60;4.60;;;;;;7363865;19;20108;-62
2022/04/23 02:00:23;;;;;;;17.02;13.85;;;9.60;5.20;;;;;;7364297;19;20007;-62
2022/04/23 02:02:52;;;;;;;19.98;13.57;;;9.60;5.50;;;;;;7365930;19;20010;-61
2022/04/23 02:05:27;;;;;;;15.50;13.32;;;9.60;5.90;;;;;;7379699;19;20031;-63
2022/04/23 02:07:57;;;;;;;15.65;13.07;;;9.50;6.40;;;;;;7362789;19;20021;-61
2022/04/23 02:10:27;;;;;;;16.80;13.35;;;9.50;7.00;;;;;;7363961;19;20017;-62
2022/04/23 02:12:57;;;;;;;17.02;12.70;;;9.50;7.30;;;;;;7365945;19;20021;-62
2022/04/23 02:15:27;;;;;;;16.58;13.10;;;9.50;7.10;;;;;;7357174;19;20561;-62
2022/04/23 02:17:58;;;;;;;17.88;12.82;;;9.50;7.60;;;;;;7362523;19;20002;-62
2022/04/23 02:20:31;;;;;;;14.60;12.70;;;9.40;8.10;;;;;;7386383;19;20017;-62
2022/04/23 02:23:01;;;;;;;18.10;12.90;;;9.40;8.10;;;;;;7365453;19;20014;-61
2022/04/23 02:25:34;;;;;;;14.65;12.05;;;9.40;8.90;;;;;;7358901;19;20014;-62
2022/04/23 02:28:06;;;;;;;16.00;12.25;;;9.30;9.60;;;;;;7361748;19;20098;-62
2022/04/23 02:30:36;;;;;;;17.90;12.98;;;9.30;10.10;;;;;;7364766;19;20082;-62
2022/04/23 02:33:06;;;;;;;15.75;12.23;;;9.30;11.20;;;;;;7364820;19;20010;-62
2022/04/23 02:35:39;;;;;;;17.92;11.93;;;9.20;11.20;;;;;;7379152;19;20018;-62
2022/04/23 02:38:09;;;;;;;14.77;11.65;;;9.20;11.60;;;;;;7362969;19;20010;-64
2022/04/23 02:40:39;;;;;;;14.82;12.18;;;9.20;12.10;;;;;;7363736;19;20101;-62
2022/04/23 02:43:12;;;;;;;15.10;11.52;;;9.20;12.20;;;;;;7364714;19;20045;-62
2022/04/23 02:45:42;;;;;;;14.90;11.70;;;9.10;12.90;;;;;;7357362;19;20038;-62
2022/04/23 02:48:12;;;;;;;15.07;11.70;;;9.10;13.20;;;;;;7362499;19;20617;-62
2022/04/23 02:50:44;;;;;;;16.77;12.90;;;9.10;13.60;;;;;;7364794;19;20778;-63
2022/04/23 02:53:16;;;;;;;15.45;12.10;;;9.10;13.80;;;;;;7386005;19;20078;-62
2022/04/23 02:55:46;;;;;;;14.05;12.00;;;9.00;14.40;;;;;;7358011;19;20081;-62
2022/04/23 02:58:16;;;;;;;15.23;12.45;;;9.00;14.70;;;;;;7362077;19;20024;-62
2022/04/23 03:00:46;;;;;;;15.85;12.05;;;9.00;15.10;;;;;;7363032;19;20400;-62
2022/04/23 03:03:16;;;;;;;14.88;12.48;;;9.00;15.10;;;;;;7364220;19;20489;-62
2022/04/23 03:05:51;;;;;;;19.23;11.70;;;8.90;15.20;;;;;;7356850;19;20040;-63
2022/04/23 03:08:23;;;;;;;15.65;12.35;;;8.90;15.60;;;;;;7383045;19;20359;-62
2022/04/23 03:10:53;;;;;;;15.48;12.18;;;8.90;16.10;;;;;;7364001;19;20019;-62
2022/04/23 03:13:23;;;;;;;15.57;11.98;;;8.90;16.40;;;;;;7362899;19;20062;-63
2022/04/23 03:15:54;;;;;;;16.15;12.52;;;8.80;16.70;;;;;;7356465;19;20011;-61
2022/04/23 03:18:23;;;;;;;18.55;12.90;;;8.70;16.40;;;;;;7361497;19;20013;-62
2022/04/23 03:20:58;;;;;;;16.60;12.23;;;8.50;17.80;;;;;;7363567;19;20010;-61
2022/04/23 03:23:28;;;;;;;;;;;8.60;18.40;;;;;;7385168;19;20022;-61
2022/04/23 03:25:59;;;;;;;15.95;13.10;;;8.50;18.30;;;;;;7357783;19;19911;-61
2022/04/23 03:28:29;;;;;;;18.55;14.57;;;8.40;18.70;;;;;;7359666;19;20026;-62
2022/04/23 03:30:59;;;;;;;16.98;13.82;;;8.20;19.70;;;;;;7363699;19;20467;-62
2022/04/23 03:33:30;;;;;;;20.73;14.82;;;8.20;20.10;;;;;;7362202;19;20479;-61
2022/04/23 03:36:03;;;;;;;18.50;14.55;;;8.10;20.50;;;;;;7357633;19;20015;-61
2022/04/23 03:38:33;;;;;;;20.95;15.73;;;8.10;21.10;;;;;;7382563;19;20021;-61
2022/04/23 03:41:04;;;;;;;17.33;13.48;;;8.00;21.50;;;;;;7362914;19;20090;-61
2022/04/23 03:43:34;;;;;;;19.90;15.88;;;8.00;21.60;;;;;;7361458;19;20091;-61
2022/04/23 03:46:04;;;;;;;18.05;14.63;;;7.90;22.30;;;;;;7358612;19;20030;-61
2022/04/23 03:48:34;;;;;;;19.48;14.77;;;7.90;23.10;;;;;;7359688;19;20078;-61
2022/04/23 03:51:06;;;;;;;20.20;15.50;;;7.90;23.60;;;;;;7362166;19;20066;-61
2022/04/23 03:53:36;;;;;;;22.92;15.88;;;7.80;23.80;;;;;;7383397;19;20014;-61
2022/04/23 03:56:08;;;;;;;19.38;14.85;;;7.80;24.20;;;;;;7358995;19;20023;-61
2022/04/23 03:58:38;;;;;;;21.77;16.02;;;7.80;24.50;;;;;;7359890;19;20011;-61
2022/04/23 04:01:08;;;;;;;21.95;15.05;;;7.80;24.60;;;;;;7361897;19;20021;-61
2022/04/23 04:03:38;;;;;;;20.75;15.60;;;7.80;24.80;;;;;;7359497;19;20007;-61
2022/04/23 04:06:11;;;;;;;22.35;16.85;;;7.80;25.30;;;;;;7356726;19;20010;-62
2022/04/23 04:08:40;;;;;;;19.50;15.80;;;7.80;25.60;;;;;;7364943;19;20025;-63
2022/04/23 04:11:10;;;;;;;21.25;16.08;;;7.70;25.40;;;;;;7384917;19;20096;-62
2022/04/23 04:13:40;;;;;;;20.17;16.15;;;7.70;25.90;;;;;;7360111;19;20010;-61
2022/04/23 04:16:12;;;;;;;20.67;15.48;;;7.70;26.70;;;;;;7358106;19;20006;-62
2022/04/23 04:18:42;;;;;;;20.00;15.30;;;7.80;26.50;;;;;;7360854;19;20015;-62
2022/04/23 04:21:16;;;;;;;20.33;15.15;;;7.90;26.60;;;;;;7363221;19;20074;-62
2022/04/23 04:23:46;;;;;;;18.55;15.07;;;7.90;25.60;;;;;;7359160;19;20052;-62
2022/04/23 04:26:16;;;;;;;18.33;14.68;;;7.90;25.70;;;;;;7380764;19;20015;-62
2022/04/23 04:28:46;;;;;;;18.42;15.07;;;7.90;25.60;;;;;;7359107;19;20066;-62
2022/04/23 04:33:58;;;;;;;22.42;16.45;;;7.90;25.10;;;;;;7357845;19;20018;-62
2022/04/23 04:36:30;;;;;;;19.90;15.48;;;7.90;24.70;;;;;;7358369;19;20015;-61
2022/04/23 04:39:00;;;;;;;19.25;15.70;;;8.30;21.70;;;;;;7359774;19;20004;-62
2022/04/23 04:41:31;;;;;;;19.95;15.32;;;8.70;18.00;;;;;;7388726;19;20022;-62
2022/04/23 04:44:01;;;;;;;18.23;14.20;;;8.90;16.10;;;;;;7364143;19;20014;-62
2022/04/23 04:46:31;;;;;;;19.10;14.40;;;9.00;15.00;;;;;;7364994;19;20020;-61
2022/04/23 04:49:01;;;;;;;18.70;14.43;;;9.20;12.50;;;;;;7364854;19;20118;-61
2022/04/23 04:51:36;;;;;;;19.02;14.15;;;8.90;15.00;;;;;;7367412;19;20457;-62
2022/04/23 04:54:06;;;;;;;19.67;14.48;;;8.80;15.30;;;;;;7363782;19;20014;-62
2022/04/23 04:56:36;;;;;;;17.83;13.82;;;8.60;17.70;;;;;;7385833;19;20014;-61
2022/04/23 04:59:06;;;;;;;21.67;15.70;;;8.40;18.40;;;;;;7364051;19;20018;-61
2022/04/23 05:01:36;;;;;;;17.52;13.43;;;8.40;19.40;;;;;;7364658;19;20026;-61
2022/04/23 05:04:07;;;;;;;18.75;14.57;;;8.40;19.00;;;;;;7363040;19;20110;-65
2022/04/23 05:06:39;;;;;;;17.65;14.10;;;8.50;18.50;;;;;;7364439;19;20017;-61
2022/04/23 05:09:09;;;;;;;18.25;14.57;;;8.50;18.70;;;;;;7366140;19;20021;-61
2022/04/23 05:11:39;;;;;;;18.05;14.13;;;8.50;18.90;;;;;;7388353;19;20018;-62
2022/04/23 05:14:09;;;;;;;18.85;14.10;;;8.50;18.40;;;;;;7362669;19;20082;-61
2022/04/23 05:16:39;;;;;;;19.48;15.02;;;8.50;18.30;;;;;;7361809;19;20046;-62
2022/04/23 05:19:09;;;;;;;16.58;13.02;;;8.50;18.30;;;;;;7365458;19;20007;-61
2022/04/23 05:21:41;;;;;;;17.95;14.00;;;8.60;18.40;;;;;;7366488;19;20007;-61
2022/04/23 05:24:11;;;;;;;18.70;14.48;;;8.60;17.80;;;;;;7363239;19;20086;-61
2022/04/23 05:26:41;;;;;;;17.63;14.00;;;8.60;17.80;;;;;;7365686;19;20110;-61
2022/04/23 05:29:11;;;;;;;17.27;13.68;;;8.70;17.90;;;;;;7387848;19;20029;-61
2022/04/23 05:31:41;;;;;;;18.70;14.45;;;8.70;18.10;;;;;;7366399;19;20458;-61
2022/04/23 05:34:11;;;;;;;18.27;13.10;;;8.70;17.60;;;;;;7362895;19;20014;-62
2022/04/23 05:36:43;;;;;;;18.08;14.07;;;8.80;17.10;;;;;;7361736;19;20012;-62
2022/04/23 05:39:13;;;;;;;16.95;13.75;;;8.80;17.00;;;;;;7365470;19;20106;-62
2022/04/23 05:41:49;;;;;;;16.00;12.75;;;8.80;16.80;;;;;;7365535;19;20044;-62
2022/04/23 05:44:19;;;;;;;19.20;12.95;;;8.80;16.80;;;;;;7383777;19;20018;-61
2022/04/23 05:46:49;;;;;;;19.30;13.93;;;9.00;16.60;;;;;;7359831;19;20411;-61
2022/04/23 05:49:19;;;;;;;15.32;12.05;;;9.00;15.90;;;;;;7365260;19;20143;-61
2022/04/23 05:52:13;;;;;;;16.42;11.65;;;9.00;15.10;;;;;;7365502;19;20018;-61
2022/04/23 05:54:43;;;;;;;15.20;11.68;;;9.30;14.00;;;;;;7362171;19;20098;-61
2022/04/23 05:57:13;;;;;;;15.60;12.50;;;9.20;13.60;;;;;;7358740;19;20086;-61
2022/04/23 05:59:42;;;;;;;20.83;11.73;;;9.40;13.60;;;;;;7365817;19;20017;-61
2022/04/23 06:02:13;;;;;;;13.40;10.60;;;9.40;13.10;;;;;;7385872;19;20506;-62
2022/04/23 06:04:48;;;;;;;14.75;10.93;;;9.50;12.80;;;;;;7359793;19;20017;-61
2022/04/23 06:07:21;;;;;;;13.93;10.43;;;9.60;11.90;;;;;;7359322;19;20069;-61
2022/04/23 06:09:51;;;;;;;13.00;9.85;;;9.60;11.30;;;;;;7365165;19;20052;-62
2022/04/23 06:12:21;;;;;;;12.73;9.70;;;9.80;10.60;;;;;;7364484;19;20485;-61
2022/04/23 06:14:51;;;;;;;10.98;8.95;;;9.90;9.20;;;;;;7359794;19;20015;-62
2022/04/23 06:17:26;;;;;;;12.02;8.77;;;9.90;9.10;;;;;;7380992;19;20019;-61
2022/04/23 06:19:56;;;;;;;10.18;7.90;;;9.90;9.40;;;;;;7363616;19;20617;-62
2022/04/23 06:22:28;;;;;;;10.70;7.97;;;10.00;7.80;;;;;;7362335;19;20024;-62
2022/04/23 06:24:58;;;;;;;12.23;8.90;;;10.20;6.90;;;;;;7358998;19;20007;-63
2022/04/23 06:27:30;;;;;;;10.15;7.65;;;10.30;6.90;;;;;;7359393;19;20027;-61
2022/04/23 06:30:00;;;;;;;10.65;8.45;;;10.10;6.80;;;;;;7363970;19;20023;-62
2022/04/23 06:32:30;;;;;;;9.55;7.47;;;10.10;6.30;;;;;;7385974;19;20695;-62
2022/04/23 06:35:00;;;;;;;9.27;7.57;;;10.20;5.50;;;;;;7356658;19;20007;-62
2022/04/23 06:37:33;;;;;;;10.23;7.68;;;10.40;5.50;;;;;;7358542;19;20090;-62
2022/04/23 06:40:03;;;;;;;10.55;8.43;;;10.30;4.80;;;;;;7362520;19;20490;-62
2022/04/23 06:42:33;;;;;;;10.25;8.15;;;10.50;4.40;;;;;;7363161;19;20086;-62
2022/04/23 06:45:03;;;;;;;9.38;7.93;;;10.50;4.40;;;;;;7357188;19;20018;-62
2022/04/23 06:47:33;;;;;;;8.82;6.82;;;10.50;4.10;;;;;;7381760;19;20022;-62
2022/04/23 06:50:03;;;;;;;9.82;7.90;;;10.70;3.00;;;;;;7362885;19;20353;-62
2022/04/23 06:52:35;;;;;;;12.23;6.97;;;10.70;2.90;;;;;;7362490;19;20046;-62
2022/04/23 06:55:06;;;;;;;9.48;6.80;;;11.00;1.60;;;;;;7356835;19;20588;-60
2022/04/23 06:57:45;;;;;;;8.60;6.22;;;11.00;1.00;;;;;;7360770;19;20090;-63
2022/04/23 07:00:16;;;;;;;9.63;7.40;;;10.70;1.50;;;;;;7363566;19;20014;-62
2022/04/23 07:02:46;;;;;;;8.43;6.85;;;10.80;1.20;;;;;;7360843;19;20029;-63
2022/04/23 07:05:16;;;;;;;9.15;6.50;;;10.90;1.00;;;;;;7377255;19;20069;-61
2022/04/23 07:08:00;;;;;;;9.80;6.40;;;11.00;1.00;;;;;;7358781;19;20796;-62
2022/04/23 07:10:32;;;;;;;7.20;5.75;;;11.10;1.00;;;;;;7362863;19;20063;-62
2022/04/23 07:13:03;;;;;;;8.68;6.60;;;11.00;1.00;;;;;;7360723;19;20018;-62
2022/04/23 07:15:33;;;;;;;7.22;5.72;;;11.00;1.00;;;;;;7356445;19;20019;-62
2022/04/23 07:18:03;;;;;;;6.85;5.70;;;11.10;1.00;;;;;;7359726;19;20819;-61
2022/04/23 07:20:33;;;;;;;8.27;5.80;;;11.40;1.00;;;;;;7384122;19;20427;-61
2022/04/23 07:25:48;;;;;;;7.72;5.85;;;11.50;1.00;;;;;;7355092;19;20098;-61
2022/04/23 07:28:18;;;;;;;9.10;6.10;;;11.40;1.00;;;;;;7359384;19;20014;-62
2022/04/23 07:30:48;;;;;;;7.20;6.10;;;11.30;1.00;;;;;;7361320;19;20015;-62
2022/04/23 07:38:45;;;;;;;8.13;5.93;;;11.20;1.00;;;;;;7358972;19;20014;-63
2022/04/23 07:41:15;;;;;;;7.07;5.53;;;11.20;1.00;;;;;;7381628;19;20018;-61
2022/04/23 07:43:44;;;;;;;7.85;5.63;;;11.50;1.00;;;;;;7357697;19;20082;-62
2022/04/23 07:46:14;;;;;;;6.75;5.50;;;11.70;1.00;;;;;;7358550;19;20015;-62
2022/04/23 07:48:44;;;;;;;6.03;4.88;;;11.60;1.00;;;;;;7357481;19;20010;-62
2022/04/23 07:51:14;;;;;;;6.55;5.30;;;11.70;1.00;;;;;;7359206;19;20016;-62
2022/04/23 07:53:47;;;;;;;6.68;5.72;;;11.90;1.00;;;;;;7359910;19;20015;-63
2022/04/23 07:56:17;;;;;;;6.88;5.40;;;11.80;1.00;;;;;;7379201;19;20018;-62
2022/04/23 07:58:46;;;;;;;7.72;4.80;;;12.20;1.00;;;;;;7359193;19;20824;-62
2022/04/23 08:01:16;;;;;;;7.20;5.40;;;12.40;1.00;;;;;;7360253;19;20078;-61
2022/04/23 08:03:46;;;;;;;6.10;4.85;;;12.20;1.00;;;;;;7358049;19;20034;-62
2022/04/23 08:06:17;;;;;;;7.97;5.65;;;11.80;1.00;;;;;;7359754;19;20029;-62
2022/04/23 08:08:49;;;;;;;8.13;5.60;;;12.00;1.00;;;;;;7360113;19;20018;-63
2022/04/23 08:11:19;;;;;;;7.53;5.30;;;12.60;1.00;;;;;;7383315;19;20037;-63
2022/04/23 08:13:50;;;;;;;6.50;4.88;;;12.20;1.00;;;;;;7358017;19;20102;-63
2022/04/23 08:16:20;;;;;;;6.72;5.07;;;12.00;1.00;;;;;;7364735;19;20019;-62
2022/04/23 08:18:50;;;;;;;6.88;5.78;;;12.00;1.00;;;;;;7366878;19;20018;-62
2022/04/23 08:21:20;;;;;;;7.20;5.40;;;12.10;1.00;;;;;;7369602;19;20011;-62
2022/04/23 08:23:52;;;;;;;8.55;5.70;;;12.10;1.00;;;;;;7364644;19;20018;-62
2022/04/23 08:26:22;;;;;;;7.05;5.53;;;12.00;1.00;;;;;;7387147;19;20025;-62
2022/04/23 08:31:34;;;;;;;7.57;5.68;;;12.10;1.00;;;;;;7367713;19;20113;-61
2022/04/23 08:34:04;;;;;;;7.18;5.60;;;12.20;1.00;;;;;;7363901;19;20391;-62
2022/04/23 08:36:36;;;;;;;9.60;6.00;;;12.20;1.00;;;;;;7366263;19;20006;-62
2022/04/23 08:39:09;;;;;;;11.40;6.20;;;12.10;1.00;;;;;;7367871;19;20010;-62
2022/04/23 08:41:39;;;;;;;7.07;6.03;;;12.20;1.00;;;;;;7389972;19;20011;-62
2022/04/23 08:44:10;;;;;;;7.95;6.07;;;12.20;1.00;;;;;;7363304;19;20014;-62
2022/04/23 08:46:41;;;;;;;9.50;5.93;;;12.50;1.00;;;;;;7363115;19;20090;-62
2022/04/23 08:49:14;;;;;;;7.65;5.80;;;12.90;1.00;;;;;;7366660;19;20399;-62
2022/04/23 08:51:45;;;;;;;6.88;5.05;;;13.00;1.00;;;;;;7367851;19;20078;-62
2022/04/23 08:54:18;;;;;;;7.45;5.47;;;13.30;1.00;;;;;;7364994;19;20017;-63
2022/04/23 08:56:49;;;;;;;9.35;6.13;;;12.80;1.00;;;;;;7361790;19;20022;-62
2022/04/23 08:59:20;;;;;;;8.25;5.72;;;12.80;1.00;;;;;;7389088;19;20014;-62
2022/04/23 09:01:57;;;;;;;8.63;6.32;;;12.80;1.00;;;;;;7367144;19;20453;-62
2022/04/23 09:04:26;;;;;;;7.65;5.55;;;12.60;1.00;;;;;;7361873;19;20021;-62
2022/04/23 09:07:01;;;;;;;8.85;5.97;;;12.60;1.00;;;;;;7361812;19;20363;-62
2022/04/23 09:09:34;;;;;;;7.63;5.75;;;12.50;1.00;;;;;;7367147;19;20014;-63
2022/04/23 09:12:04;;;;;;;7.47;5.53;;;12.80;1.00;;;;;;7364794;19;20018;-62
2022/04/23 09:14:36;;;;;;;7.50;5.18;;;12.60;1.00;;;;;;7381939;19;20021;-62
2022/04/23 09:25:19;;;;;;;6.55;4.40;;;13.00;1.00;;;;;;7359061;19;20015;-64
2022/04/23 09:27:49;;;;;;;6.18;4.40;;;13.30;1.00;;;;;;7361768;19;20045;-63
2022/04/23 09:30:18;;;;;;;5.43;4.57;;;13.30;1.00;;;;;;7363845;19;20501;-63
2022/04/23 09:33:01;;;;;;;5.72;4.35;;;13.00;1.00;;;;;;7365717;19;20090;-62
2022/04/23 09:35:31;;;;;;;5.85;4.75;;;12.90;1.00;;;;;;7379354;19;20450;-63
2022/04/23 09:38:18;;;;;;;9.35;4.40;;;12.90;1.00;;;;;;7360271;19;20021;-64
2022/04/23 09:40:55;;;;;;;7.65;4.50;;;13.10;1.00;;;;;;7361298;19;20030;-63
2022/04/23 09:43:31;;;;;;;4.65;4.05;;;13.50;1.00;;;;;;7365439;19;20064;-63
2022/04/23 09:46:05;;;;;;;4.40;3.90;;;13.50;1.00;;;;;;7358431;19;20025;-63
2022/04/23 09:48:43;;;;;;;5.30;4.30;;;13.10;1.00;;;;;;7363517;19;20013;-62
2022/04/23 09:51:24;;;;;;;4.38;3.97;;;13.40;1.00;;;;;;7365600;19;20006;-63
2022/04/23 09:53:56;;;;;;;4.57;3.90;;;13.20;1.00;;;;;;7361602;19;20018;-62
2022/04/23 09:56:29;;;;;;;4.25;3.85;;;13.00;1.00;;;;;;7385148;19;20660;-62
2022/04/23 09:58:59;;;;;;;7.03;4.10;;;12.90;1.00;;;;;;7363790;19;20128;-62
2022/04/23 10:01:28;;;;;;;6.10;4.25;;;12.80;1.00;;;;;;7365618;19;20010;-63
2022/04/23 10:03:59;;;;;;;6.03;4.45;;;12.90;1.00;;;;;;7361018;19;20031;-62
2022/04/23 10:06:35;;;;;;;6.25;4.38;;;12.70;1.00;;;;;;7362489;19;20015;-62
2022/04/23 10:09:07;;;;;;;5.18;4.65;;;12.70;1.00;;;;;;7364264;19;20545;-63
2022/04/23 10:11:45;;;;;;;5.05;3.78;;;13.00;1.00;;;;;;7387027;19;20022;-62
2022/04/23 10:14:22;;;;;;;6.88;4.47;;;12.90;1.00;;;;;;7359291;19;20045;-62
2022/04/23 10:16:53;;;;;;;7.05;4.35;;;12.80;1.00;;;;;;7358383;19;20021;-62
2022/04/23 10:19:24;;;;;;;7.18;4.78;;;12.80;1.00;;;;;;7364240;19;20020;-62
2022/04/23 10:22:02;;;;;;;6.35;4.72;;;13.00;1.00;;;;;;7365192;19;20010;-62
2022/04/23 10:24:41;;;;;;;6.28;4.88;;;12.90;1.00;;;;;;7360132;19;20077;-62
2022/04/23 10:27:18;;;;;;;5.72;4.28;;;13.10;1.00;;;;;;7359204;19;20482;-63
2022/04/23 10:29:50;;;;;;;8.25;5.15;;;13.20;1.00;;;;;;7363206;19;20010;-62
2022/04/23 10:32:20;;;;;;;7.93;4.72;;;13.50;1.00;;;;;;7386580;19;20014;-62
2022/04/23 10:34:50;;;;;;;7.95;4.47;;;14.00;1.00;;;;;;7359175;19;20011;-62
2022/04/23 10:37:22;;;;;;;7.15;4.85;;;13.70;1.00;;;;;;7354868;19;20018;-63
2022/04/23 10:40:18;;;;;;;5.93;4.72;;;13.40;1.00;;;;;;7364012;19;20011;-62
2022/04/23 10:43:12;;;;;;;6.53;4.82;;;13.50;1.00;;;;;;7362488;19;20023;-63
2022/04/23 10:45:43;;;;;;;7.72;5.03;;;13.10;1.00;;;;;;7356624;19;20022;-62
2022/04/23 10:48:35;;;;;;;5.68;4.53;;;13.10;1.00;;;;;;7361597;19;20011;-62
2022/04/23 10:51:16;;;;;;;6.72;5.07;;;13.10;1.00;;;;;;7364657;19;20061;-62
2022/04/23 10:53:57;;;;;;;6.28;4.50;;;13.50;1.00;;;;;;7360741;19;20018;-63
2022/04/23 10:56:27;;;;;;;6.60;5.35;;;13.20;1.00;;;;;;7383412;19;20102;-62
2022/04/23 10:59:02;;;;;;;6.43;4.82;;;13.60;1.00;;;;;;7360945;19;20013;-63
2022/04/23 11:01:36;;;;;;;6.65;4.78;;;13.60;1.00;;;;;;7363356;19;20007;-62
2022/04/23 11:04:21;;;;;;;6.43;4.53;;;13.40;1.00;;;;;;7359121;19;20679;-62
2022/04/23 11:12:56;;;;;;;7.05;4.97;;;14.10;1.00;;;;;;7362586;19;20086;-62
2022/04/23 11:15:29;;;;;;;8.38;5.53;;;13.90;1.00;;;;;;7355798;19;20014;-64
2022/04/23 11:17:59;;;;;;;6.93;5.68;;;13.60;1.00;;;;;;7360563;19;20021;-62
2022/04/23 11:20:32;;;;;;;8.63;5.88;;;13.60;1.00;;;;;;7384974;19;20046;-61
2022/04/23 11:23:04;;;;;;;6.72;5.53;;;13.60;1.00;;;;;;7362720;19;20028;-62
2022/04/23 11:25:34;;;;;;;9.35;6.13;;;13.80;1.00;;;;;;7355328;19;20629;-62
2022/04/23 11:28:23;;;;;;;8.50;6.28;;;13.90;1.00;;;;;;7358889;19;20043;-62
2022/04/23 11:30:57;;;;;;;7.32;5.57;;;13.80;1.00;;;;;;7362329;19;20495;-62
2022/04/23 11:33:27;;;;;;;9.43;6.40;;;13.60;1.00;;;;;;7361514;19;20064;-62
2022/04/23 11:36:00;;;;;;;7.63;6.07;;;13.60;1.00;;;;;;7353085;19;20700;-61
2022/04/23 11:38:31;;;;;;;10.00;6.30;;;13.60;1.00;;;;;;7378854;19;20022;-62
2022/04/23 11:41:01;;;;;;;7.78;6.10;;;13.80;1.00;;;;;;7361643;19;20102;-62
2022/04/23 11:43:33;;;;;;;12.38;7.07;;;13.80;1.00;;;;;;7361201;19;20015;-63
2022/04/23 11:46:11;;;;;;;7.50;6.30;;;13.50;1.00;;;;;;7356793;19;20010;-62
2022/04/23 11:48:48;;;;;;;9.95;6.75;;;13.60;1.00;;;;;;7361511;19;20086;-62
2022/04/23 11:51:20;;;;;;;8.82;6.75;;;13.90;1.00;;;;;;7368572;19;20359;-63
2022/04/23 11:54:00;;;;;;;9.13;7.13;;;14.20;1.00;;;;;;7364134;19;20014;-63
2022/04/23 11:56:36;;;;;;;9.75;6.45;;;14.00;1.00;;;;;;7388573;19;20022;-62
2022/04/23 11:59:09;;;;;;;8.95;6.45;;;13.90;1.00;;;;;;7368277;19;20035;-62
2022/04/23 12:01:47;;;;;;;7.63;6.50;;;14.10;1.00;;;;;;7369514;19;20010;-62
2022/04/23 12:04:17;;;;;;;9.88;6.45;;;14.30;1.00;;;;;;7363567;19;20015;-61
2022/04/23 12:06:48;;;;;;;10.45;6.65;;;14.60;1.00;;;;;;7361960;19;20097;-63
2022/04/23 12:09:18;;;;;;;7.78;6.45;;;14.60;1.00;;;;;;7369393;19;20010;-62
2022/04/23 12:12:02;;;;;;;9.40;6.55;;;14.60;1.00;;;;;;7370171;19;20012;-63
2022/04/23 12:14:32;;;;;;;7.93;6.07;;;14.50;1.00;;;;;;7385184;19;20018;-62
2022/04/23 12:17:12;;;;;;;8.77;6.88;;;15.00;1.00;;;;;;7363465;19;21437;-62
2022/04/23 12:19:42;;;;;;;9.75;6.75;;;15.10;1.00;;;;;;7369435;19;20007;-63
2022/04/23 12:22:11;;;;;;;7.63;6.65;;;14.80;1.00;;;;;;7368631;19;20467;-63
2022/04/23 12:24:42;;;;;;;8.40;6.65;;;14.60;1.00;;;;;;7366340;19;20486;-63
2022/04/23 12:27:12;;;;;;;10.13;6.82;;;14.50;1.00;;;;;;7360948;19;20006;-64
2022/04/23 12:40:48;;;;;;;9.13;7.22;;;14.70;1.00;;;;;;7367376;19;20031;-62
2022/04/23 12:43:25;;;;;;;9.82;7.93;;;14.60;1.00;;;;;;7367095;19;20007;-62
2022/04/23 12:46:08;;;;;;;9.65;7.93;;;14.80;1.00;;;;;;7359434;19;20475;-62
2022/04/23 12:49:03;;;;;;;9.02;7.93;;;14.70;1.00;;;;;;7364833;19;20454;-62
2022/04/23 12:51:33;;;;;;;11.35;7.43;;;14.40;1.00;;;;;;7367329;19;20010;-63
2022/04/23 12:54:14;;;;;;;8.90;8.00;;;14.80;1.00;;;;;;7363946;19;20008;-63
2022/04/23 12:56:44;;;;;;;11.70;7.72;;;14.80;1.00;;;;;;7365521;19;20014;-64
2022/04/23 12:59:13;;;;;;;8.20;7.40;;;14.70;1.00;;;;;;7388233;19;20018;-63
2022/04/23 13:01:43;;;;;;;10.23;8.02;;;15.30;1.00;;;;;;7366063;19;21206;-63
2022/04/23 13:04:17;;;;;;;9.10;7.75;;;14.90;1.00;;;;;;7361226;19;20013;-61
2022/04/23 13:09:29;;;;;;;8.38;7.35;;;14.90;1.00;;;;;;7365459;19;20471;-63
2022/04/23 13:12:00;;;;;;;10.35;7.95;;;14.80;1.00;;;;;;7366338;19;20025;-61
2022/04/23 13:14:30;;;;;;;11.48;8.35;;;15.00;1.00;;;;;;7384843;19;20037;-62
2022/04/23 13:16:59;;;;;;;9.88;7.65;;;15.10;1.00;;;;;;7360194;19;20018;-63
2022/04/23 13:19:32;;;;;;;9.60;8.35;;;14.90;1.00;;;;;;7365486;19;20014;-62
2022/04/23 13:22:03;;;;;;;9.88;8.10;;;15.00;1.00;;;;;;7365042;19;20019;-62
2022/04/23 13:24:33;;;;;;;11.13;8.45;;;14.80;1.00;;;;;;7361636;19;20006;-63
2022/04/23 13:27:03;;;;;;;9.93;8.68;;;14.80;1.00;;;;;;7358030;19;20038;-61
2022/04/23 13:29:33;;;;;;;11.60;8.90;;;14.70;1.00;;;;;;7388420;19;20014;-63
2022/04/23 13:32:03;;;;;;;11.35;8.88;;;14.70;1.00;;;;;;7365408;19;20074;-62
2022/04/23 13:34:36;;;;;;;9.40;8.50;;;14.60;1.00;;;;;;7361672;19;20014;-63
2022/04/23 13:37:06;;;;;;;12.93;8.35;;;14.70;1.00;;;;;;7359188;19;20082;-63
2022/04/23 13:39:36;;;;;;;10.57;8.77;;;14.90;1.00;;;;;;7366536;19;20787;-61
2022/04/23 13:42:08;;;;;;;10.95;8.48;;;14.80;1.00;;;;;;7365669;19;20017;-62
2022/04/23 13:44:38;;;;;;;10.57;8.98;;;14.70;1.00;;;;;;7383895;19;20025;-62
2022/04/23 13:47:09;;;;;;;10.95;9.32;;;14.70;1.00;;;;;;7355847;19;20024;-61
2022/04/23 13:49:42;;;;;;;12.60;9.10;;;14.90;1.00;;;;;;7365013;19;20009;-62
2022/04/23 13:52:12;;;;;;;10.13;8.98;;;14.70;1.00;;;;;;7364270;19;20771;-63
2022/04/23 13:54:42;;;;;;;12.00;8.77;;;14.60;1.00;;;;;;7362206;19;20098;-63